Time;durP1;ratioP1;P1;durP2;ratioP2;P2;SDS_P1;SDS_P2;PMS_P1;PMS_P2;Temp;Humidity;BMP_temperature;BMP_pressure;BME280_temperature;BME280_humidity;BME280_pressure;Samples;Min_cycle;Max_cycle;Signal;HPM_P1;HPM_P2
2023/01/15 00:01:47;;;;;;;8.03;5.13;;;;;;;7.09;99.52;98920.47;6098241;23;20211;-81
2023/01/15 00:04:14;;;;;;;5.90;4.50;;;;;;;6.93;100.00;98912.97;6099388;23;20163;-81
2023/01/15 00:06:41;;;;;;;6.63;4.93;;;;;;;6.98;100.00;98908.66;6227272;23;20248;-81
2023/01/15 00:09:12;;;;;;;6.30;5.40;;;;;;;7.01;100.00;98916.19;6075384;23;20176;-81
2023/01/15 00:11:39;;;;;;;6.37;5.70;;;;;;;6.94;100.00;98919.94;6100487;23;20156;-81
2023/01/15 00:14:06;;;;;;;6.37;5.70;;;;;;;6.97;100.00;98907.00;6098515;23;20164;-81
2023/01/15 00:16:33;;;;;;;6.77;5.50;;;;;;;6.82;100.00;98898.50;6100527;23;20172;-81
2023/01/15 00:19:00;;;;;;;6.07;5.10;;;;;;;6.82;100.00;98884.34;6099980;23;20164;-81
2023/01/15 00:21:27;;;;;;;6.60;5.13;;;;;;;6.77;100.00;98884.16;6098909;23;20171;-82
2023/01/15 00:29:25;;;;;;;6.83;5.17;;;;;;;6.57;100.00;98866.50;6202093;23;20348;-81
2023/01/15 00:31:56;;;;;;;5.13;4.53;;;;;;;6.58;100.00;98867.28;6099192;23;20255;-81
2023/01/15 00:34:24;;;;;;;5.30;4.47;;;;;;;6.55;100.00;98867.72;6100260;23;20179;-81
2023/01/15 00:36:51;;;;;;;5.20;4.60;;;;;;;6.49;100.00;98880.00;6101604;23;20164;-81
2023/01/15 00:39:18;;;;;;;6.37;5.43;;;;;;;6.42;100.00;98870.44;6099868;23;20188;-81
2023/01/15 00:41:45;;;;;;;5.10;4.60;;;;;;;6.43;100.00;98861.44;6100463;23;20675;-81
2023/01/15 00:44:12;;;;;;;5.97;4.20;;;;;;;6.54;100.00;98853.59;6098057;23;20584;-82
2023/01/15 00:46:39;;;;;;;7.23;4.73;;;;;;;6.49;100.00;98847.25;6100322;23;20196;-81
2023/01/15 00:49:06;;;;;;;5.00;4.40;;;;;;;6.48;100.00;98845.66;6098233;23;20177;-80
2023/01/15 00:51:34;;;;;;;6.20;4.50;;;;;;;6.56;100.00;98848.06;6075042;23;20169;-81
2023/01/15 00:54:01;;;;;;;5.33;4.33;;;;;;;6.45;100.00;98843.41;6226912;23;20243;-81
2023/01/15 00:56:28;;;;;;;5.53;4.23;;;;;;;6.42;100.00;98843.81;6226317;23;20168;-81
2023/01/15 00:58:55;;;;;;;5.93;4.10;;;;;;;6.35;100.00;98827.88;6075062;23;20188;-81
2023/01/15 01:01:21;;;;;;;6.70;4.50;;;;;;;6.32;100.00;98830.16;6099327;23;20160;-81
2023/01/15 01:03:51;;;;;;;4.93;4.43;;;;;;;6.27;100.00;98827.31;6076147;23;20164;-81
2023/01/15 01:06:19;;;;;;;5.10;4.23;;;;;;;6.25;100.00;98832.88;6100307;23;20185;-81
2023/01/15 01:08:46;;;;;;;5.30;4.30;;;;;;;6.17;100.00;98820.59;6099965;23;20161;-81
2023/01/15 01:11:15;;;;;;;6.50;4.97;;;;;;;6.13;100.00;98819.38;6098998;23;20168;-81
2023/01/15 01:13:43;;;;;;;6.43;4.60;;;;;;;6.22;100.00;98830.59;6099332;23;20180;-81
2023/01/15 01:16:20;;;;;;;5.57;4.50;;;;;;;6.29;100.00;98826.09;6100398;23;20614;-81
2023/01/15 01:18:48;;;;;;;5.27;4.40;;;;;;;6.17;100.00;98815.28;6099278;23;20160;-81
2023/01/15 01:21:15;;;;;;;5.50;4.47;;;;;;;6.14;100.00;98810.38;6226750;23;20605;-81
2023/01/15 01:23:42;;;;;;;4.83;4.33;;;;;;;6.15;100.00;98812.03;6254361;23;20172;-82
2023/01/15 01:26:09;;;;;;;5.33;4.03;;;;;;;5.95;100.00;98795.31;6227568;23;20161;-82
2023/01/15 01:28:36;;;;;;;4.67;4.17;;;;;;;5.92;100.00;98792.28;6228329;23;20590;-81
2023/01/15 01:31:07;;;;;;;4.93;4.20;;;;;;;5.99;100.00;98801.03;6227793;23;20595;-82
2023/01/15 01:33:34;;;;;;;6.27;4.70;;;;;;;5.94;100.00;98799.00;6252981;23;20164;-81
2023/01/15 01:36:01;;;;;;;5.27;4.37;;;;;;;5.98;100.00;98780.78;6201614;23;20160;-81
2023/01/15 01:38:27;;;;;;;5.80;3.97;;;;;;;5.96;100.00;98780.19;6113396;23;20286;-81
2023/01/15 01:40:54;;;;;;;6.10;4.20;;;;;;;5.93;100.00;98777.94;6104555;23;20160;-82
2023/01/15 01:43:23;;;;;;;5.27;4.13;;;;;;;5.91;100.00;98790.63;6129863;23;20202;-81
2023/01/15 01:45:50;;;;;;;5.70;4.27;;;;;;;5.86;100.00;98771.81;6129769;23;20163;-81
2023/01/15 01:48:22;;;;;;;4.77;4.27;;;;;;;5.84;100.00;98781.81;6129206;23;20243;-81
2023/01/15 01:50:50;;;;;;;6.27;4.53;;;;;;;5.78;100.00;98776.31;6104260;23;20635;-82
2023/01/15 01:53:20;;;;;;;4.30;3.90;;;;;;;5.84;100.00;98772.00;6129539;23;20170;-81
2023/01/15 01:55:48;;;;;;;5.70;3.47;;;;;;;5.78;100.00;98772.03;6129849;23;20224;-81
2023/01/15 01:58:15;;;;;;;3.67;3.37;;;;;;;5.76;100.00;98773.06;6080546;23;20172;-81
2023/01/15 02:00:45;;;;;;;4.20;3.43;;;;;;;5.75;100.00;98773.25;6103725;23;20179;-82
2023/01/15 02:03:15;;;;;;;3.53;3.23;;;;;;;5.84;100.00;98764.03;6104063;23;20175;-81
2023/01/15 02:05:46;;;;;;;4.43;3.30;;;;;;;5.88;100.00;98759.94;6079619;23;20177;-81
2023/01/15 02:08:13;;;;;;;3.30;2.90;;;;;;;5.87;100.00;98749.56;6102807;23;20271;-80
2023/01/15 02:10:40;;;;;;;3.20;2.87;;;;;;;6.11;100.00;98759.47;6229054;23;20227;-81
2023/01/15 02:13:11;;;;;;;3.83;3.33;;;;;;;6.13;100.00;98746.75;6126245;23;20279;-81
2023/01/15 02:15:42;;;;;;;3.47;3.07;;;;;;;6.14;100.00;98743.91;6102161;23;20211;-81
2023/01/15 02:18:23;;;;;;;5.47;3.77;;;;;;;6.10;100.00;98740.03;6078092;23;20273;-81
2023/01/15 02:20:54;;;;;;;4.23;3.70;;;;;;;6.21;100.00;98733.22;6228661;23;20211;-80
2023/01/15 02:23:23;;;;;;;4.53;3.90;;;;;;;6.22;100.00;98728.72;6079268;23;20211;-81
2023/01/15 02:25:56;;;;;;;4.27;3.87;;;;;;;6.28;100.00;98728.69;6098351;23;20667;-81
2023/01/15 02:28:32;;;;;;;4.40;4.00;;;;;;;6.36;100.00;98732.94;6099518;23;20203;-81
2023/01/15 02:31:20;;;;;;;5.90;4.10;;;;;;;6.28;100.00;98726.03;6078771;23;20218;-81
2023/01/15 02:34:02;;;;;;;4.77;3.83;;;;;;;6.30;100.00;98723.16;6075225;23;20612;-81
2023/01/15 02:36:32;;;;;;;5.57;4.17;;;;;;;6.28;100.00;98717.22;6199555;23;20249;-81
2023/01/15 02:39:04;;;;;;;6.00;4.57;;;;;;;6.14;100.00;98709.31;6076866;23;20208;-81
2023/01/15 02:41:35;;;;;;;5.23;4.10;;;;;;;6.14;100.00;98706.66;6077985;23;20207;-81
2023/01/15 02:44:04;;;;;;;4.50;3.80;;;;;;;6.29;100.00;98705.56;6077132;23;20214;-80
2023/01/15 02:46:34;;;;;;;5.50;4.10;;;;;;;6.14;100.00;98704.00;6078442;23;20577;-81
2023/01/15 02:49:06;;;;;;;5.30;3.80;;;;;;;6.07;100.00;98697.91;6101368;23;20211;-81
2023/01/15 02:51:50;;;;;;;4.00;3.43;;;;;;;6.03;100.00;98691.38;6077792;23;20672;-81
2023/01/15 02:54:22;;;;;;;3.93;3.53;;;;;;;6.04;100.00;98692.19;6077461;23;20207;-81
2023/01/15 02:56:51;;;;;;;5.57;4.13;;;;;;;6.00;100.00;98696.31;6101962;23;20208;-81
2023/01/15 02:59:22;;;;;;;5.63;3.80;;;;;;;6.00;100.00;98697.13;6127890;23;20215;-81
2023/01/15 03:02:10;;;;;;;4.40;3.53;;;;;;;5.99;100.00;98692.00;6078098;23;20204;-82
2023/01/15 03:04:43;;;;;;;4.40;3.63;;;;;;;5.97;100.00;98684.25;6078243;23;20211;-81
2023/01/15 03:07:31;;;;;;;4.17;3.70;;;;;;;5.93;100.00;98692.84;6077489;23;20230;-81
2023/01/15 03:09:58;;;;;;;4.87;3.53;;;;;;;5.97;100.00;98678.94;6078177;23;20218;-81
2023/01/15 03:13:01;;;;;;;4.17;3.60;;;;;;;5.98;100.00;98682.41;6100734;23;20520;-82
2023/01/15 03:19:00;;;;;;;4.40;3.63;;;;;;;5.99;100.00;98668.09;6082911;23;20211;-81
2023/01/15 03:21:49;;;;;;;3.97;3.37;;;;;;;5.86;100.00;98658.31;6127368;23;20214;-81
2023/01/15 03:24:23;;;;;;;3.83;3.30;;;;;;;5.87;100.00;98652.00;6099225;23;20669;-81
2023/01/15 03:26:51;;;;;;;4.53;3.27;;;;;;;5.97;100.00;98660.31;6101739;23;20213;-81
2023/01/15 03:29:20;;;;;;;3.97;3.50;;;;;;;5.95;100.00;98662.38;6101442;23;20215;-81
2023/01/15 03:31:48;;;;;;;4.20;3.57;;;;;;;5.86;100.00;98649.53;6077350;23;20211;-81
2023/01/15 03:34:17;;;;;;;4.70;3.43;;;;;;;5.83;100.00;98645.47;6199867;23;20271;-81
2023/01/15 03:36:45;;;;;;;3.70;3.30;;;;;;;5.78;100.00;98632.78;6227410;23;20212;-81
2023/01/15 03:39:11;;;;;;;5.17;3.50;;;;;;;5.89;100.00;98627.84;6070958;23;20668;-81
2023/01/15 03:41:50;;;;;;;3.53;3.17;;;;;;;5.82;100.00;98622.56;6059933;23;20226;-81
2023/01/15 03:44:26;;;;;;;3.43;2.90;;;;;;;5.78;100.00;98627.47;6096028;23;20212;-81
2023/01/15 03:47:23;;;;;;;4.17;3.27;;;;;;;5.69;100.00;98618.09;6074067;23;20209;-81
2023/01/15 03:50:12;;;;;;;3.83;3.33;;;;;;;5.60;100.00;98614.06;6099063;23;20192;-81
2023/01/15 03:53:12;;;;;;;5.53;3.20;;;;;;;5.65;100.00;98600.16;6200420;23;20215;-81
2023/01/15 03:56:00;;;;;;;3.97;3.47;;;;;;;5.68;100.00;98597.09;6097344;23;20208;-81
2023/01/15 03:58:41;;;;;;;3.93;2.80;;;;;;;5.61;100.00;98596.28;6075459;23;20200;-81
2023/01/15 04:01:14;;;;;;;4.47;3.30;;;;;;;5.65;100.00;98603.63;6074855;23;20209;-81
2023/01/15 04:03:41;;;;;;;3.77;3.40;;;;;;;5.66;100.00;98604.44;6097428;23;20234;-81
2023/01/15 04:06:09;;;;;;;4.07;3.33;;;;;;;5.62;100.00;98603.25;6097383;23;20216;-80
2023/01/15 04:08:38;;;;;;;4.27;3.07;;;;;;;5.65;100.00;98598.31;6073325;23;20214;-81
2023/01/15 04:11:05;;;;;;;4.77;3.07;;;;;;;5.58;100.00;98602.03;6050523;23;20205;-81
2023/01/15 04:13:39;;;;;;;5.67;3.17;;;;;;;5.64;100.00;98607.34;6115608;23;20203;-81
2023/01/15 04:16:31;;;;;;;4.00;3.10;;;;;;;5.66;100.00;98613.22;6089226;23;20203;-80
2023/01/15 04:18:58;;;;;;;3.43;3.03;;;;;;;5.71;100.00;98602.78;6073925;23;20237;-80
2023/01/15 04:21:26;;;;;;;3.93;2.80;;;;;;;5.66;100.00;98605.25;6073998;23;20208;-81
2023/01/15 04:23:53;;;;;;;4.50;3.20;;;;;;;5.48;100.00;98597.19;6099315;23;20212;-81
2023/01/15 04:26:19;;;;;;;3.73;3.10;;;;;;;5.49;100.00;98600.66;6098205;23;20668;-81
2023/01/15 04:28:46;;;;;;;3.77;3.13;;;;;;;5.47;100.00;98592.06;6098689;23;20212;-81
2023/01/15 04:31:13;;;;;;;4.30;3.07;;;;;;;5.46;100.00;98596.56;6100450;23;20208;-81
2023/01/15 04:33:40;;;;;;;4.03;3.20;;;;;;;5.38;100.00;98604.78;6099849;23;20255;-81
2023/01/15 04:36:10;;;;;;;3.93;3.20;;;;;;;5.37;100.00;98607.63;6099522;23;20311;-80
2023/01/15 04:38:37;;;;;;;4.63;3.30;;;;;;;5.35;100.00;98604.41;6092379;23;20228;-81
2023/01/15 04:44:08;;;;;;;5.50;3.40;;;;;;;5.31;100.00;98604.81;6129567;23;20220;-81
2023/01/15 04:46:39;;;;;;;3.40;2.97;;;;;;;5.46;100.00;98604.53;6093297;23;20260;-81
2023/01/15 04:49:09;;;;;;;3.83;3.10;;;;;;;5.27;100.00;98589.53;6103787;23;20238;-81
2023/01/15 04:51:38;;;;;;;5.23;3.60;;;;;;;5.36;100.00;98590.09;6103502;23;20561;-81
2023/01/15 04:54:06;;;;;;;5.27;3.30;;;;;;;5.15;100.00;98597.31;6079646;23;20195;-80
2023/01/15 04:56:38;;;;;;;3.30;2.73;;;;;;;5.16;100.00;98596.28;6104093;23;20204;-81
2023/01/15 04:59:05;;;;;;;3.40;3.10;;;;;;;5.16;100.00;98593.66;6129260;23;20212;-81
2023/01/15 05:01:31;;;;;;;3.80;3.17;;;;;;;5.16;100.00;98600.78;6129076;23;20690;-81
2023/01/15 05:03:59;;;;;;;3.97;3.43;;;;;;;5.40;100.00;98604.59;6103943;23;20211;-81
2023/01/15 05:06:26;;;;;;;3.67;3.10;;;;;;;5.24;100.00;98600.53;6129086;23;20204;-81
2023/01/15 05:08:53;;;;;;;4.70;3.13;;;;;;;5.13;100.00;98591.38;6080071;23;20237;-81
2023/01/15 05:11:20;;;;;;;3.90;3.07;;;;;;;5.04;100.00;98595.31;6130357;23;20188;-82
2023/01/15 05:13:46;;;;;;;4.20;3.33;;;;;;;4.94;100.00;98600.25;6129153;23;20211;-81
2023/01/15 05:16:23;;;;;;;3.87;3.00;;;;;;;4.94;100.00;98597.59;6103808;23;20239;-81
2023/01/15 05:18:51;;;;;;;4.93;3.23;;;;;;;5.01;100.00;98589.59;6129622;23;20207;-81
2023/01/15 05:21:21;;;;;;;4.57;3.30;;;;;;;5.04;100.00;98587.34;6102869;23;20207;-81
2023/01/15 05:23:49;;;;;;;4.13;3.07;;;;;;;5.05;100.00;98582.84;6128617;23;20216;-81
2023/01/15 05:26:16;;;;;;;5.70;3.17;;;;;;;5.10;100.00;98573.22;6128238;23;20239;-81
2023/01/15 05:28:43;;;;;;;5.57;3.13;;;;;;;5.12;100.00;98583.66;6102645;23;20211;-81
2023/01/15 05:31:17;;;;;;;4.03;3.10;;;;;;;5.01;100.00;98585.09;6128357;23;20282;-81
2023/01/15 05:33:45;;;;;;;4.23;3.20;;;;;;;4.96;100.00;98581.44;6103031;23;20207;-81
2023/01/15 05:36:14;;;;;;;4.90;3.57;;;;;;;4.91;100.00;98581.25;6127622;23;20607;-81
2023/01/15 05:38:41;;;;;;;4.27;3.30;;;;;;;4.91;100.00;98576.75;6128076;23;20211;-81
2023/01/15 05:44:01;;;;;;;4.53;3.53;;;;;;;4.94;100.00;98572.91;6080243;23;20215;-81
2023/01/15 05:46:27;;;;;;;5.97;3.57;;;;;;;4.92;100.00;98569.63;6128195;23;20207;-81
2023/01/15 05:48:59;;;;;;;3.43;3.13;;;;;;;4.85;100.00;98565.13;6125744;23;20227;-81
2023/01/15 05:51:25;;;;;;;5.97;3.57;;;;;;;4.94;100.00;98568.41;6128193;23;20260;-81
2023/01/15 05:53:52;;;;;;;4.33;3.73;;;;;;;4.87;100.00;98580.88;6203482;23;20226;-81
2023/01/15 05:56:18;;;;;;;4.70;4.00;;;;;;;4.87;100.00;98572.91;6124016;23;20261;-81
2023/01/15 05:58:46;;;;;;;5.67;4.30;;;;;;;4.80;100.00;98574.78;6126735;23;20215;-81
2023/01/15 06:01:12;;;;;;;6.60;3.70;;;;;;;4.82;100.00;98578.00;6127359;23;20212;-81
2023/01/15 06:03:40;;;;;;;4.43;3.93;;;;;;;4.70;100.00;98577.84;6098624;23;20235;-81
2023/01/15 06:06:11;;;;;;;5.57;3.73;;;;;;;4.61;100.00;98587.06;6124230;23;20221;-81
2023/01/15 06:08:38;;;;;;;5.43;3.30;;;;;;;4.67;100.00;98575.59;6102646;23;20211;-81
2023/01/15 06:11:06;;;;;;;4.57;3.43;;;;;;;4.76;100.00;98584.97;6229801;23;20215;-81
2023/01/15 06:13:33;;;;;;;4.37;3.50;;;;;;;4.79;100.00;98586.41;6102878;23;20212;-81
2023/01/15 06:16:00;;;;;;;4.27;3.77;;;;;;;4.80;100.00;98590.69;6102592;23;20537;-81
2023/01/15 06:18:26;;;;;;;5.60;3.60;;;;;;;4.73;100.00;98589.88;6066207;23;20215;-81
2023/01/15 06:20:53;;;;;;;4.13;3.37;;;;;;;4.85;100.00;98591.69;6101696;23;20223;-81
2023/01/15 06:23:20;;;;;;;3.80;3.40;;;;;;;4.83;100.00;98599.03;6128153;23;20656;-80
2023/01/15 06:25:46;;;;;;;4.93;3.70;;;;;;;4.83;100.00;98609.66;6128912;23;20216;-81
2023/01/15 06:28:13;;;;;;;4.20;3.80;;;;;;;4.66;100.00;98621.75;6104092;23;20188;-81
2023/01/15 06:30:40;;;;;;;4.20;3.50;;;;;;;4.72;100.00;98620.06;6128416;23;20160;-81
2023/01/15 06:33:06;;;;;;;5.13;3.50;;;;;;;4.56;100.00;98621.34;6101459;23;20505;-81
2023/01/15 06:35:34;;;;;;;4.03;3.30;;;;;;;4.39;100.00;98614.81;6102461;23;20172;-81
2023/01/15 06:38:00;;;;;;;4.20;3.20;;;;;;;4.40;100.00;98616.44;6128437;23;20192;-81
2023/01/15 06:40:27;;;;;;;3.70;2.97;;;;;;;4.41;100.00;98618.06;6102888;23;20194;-82
2023/01/15 06:48:28;;;;;;;4.47;3.27;;;;;;;4.36;100.00;98616.03;6214331;23;20180;-81
2023/01/15 06:50:55;;;;;;;4.30;3.90;;;;;;;4.47;100.00;98609.31;6102945;23;20191;-81
2023/01/15 06:53:22;;;;;;;3.27;2.90;;;;;;;4.49;100.00;98615.22;6229406;23;20194;-80
2023/01/15 06:55:48;;;;;;;3.30;3.00;;;;;;;4.55;100.00;98600.31;6128391;23;20549;-81
2023/01/15 06:58:16;;;;;;;3.70;3.10;;;;;;;4.53;100.00;98600.50;6129156;23;20175;-81
2023/01/15 07:00:43;;;;;;;4.50;3.67;;;;;;;4.56;100.00;98601.94;6079023;23;20160;-81
2023/01/15 07:03:13;;;;;;;3.63;3.10;;;;;;;4.61;100.00;98602.97;6127663;23;20168;-81
2023/01/15 07:05:40;;;;;;;3.90;3.10;;;;;;;4.69;100.00;98596.63;6128688;23;20172;-81
2023/01/15 07:08:06;;;;;;;4.50;3.40;;;;;;;4.66;100.00;98605.81;6101949;23;20206;-81
2023/01/15 07:10:34;;;;;;;4.40;3.50;;;;;;;4.76;100.00;98608.03;6127959;23;20541;-81
2023/01/15 07:13:01;;;;;;;4.90;3.30;;;;;;;4.84;100.00;98602.53;6101863;23;20212;-81
2023/01/15 07:15:28;;;;;;;4.53;3.53;;;;;;;4.81;100.00;98601.09;6101796;23;20689;-81
2023/01/15 07:17:56;;;;;;;5.70;3.77;;;;;;;4.85;100.00;98607.59;6228571;23;20681;-81
2023/01/15 07:20:23;;;;;;;5.43;4.30;;;;;;;4.88;100.00;98609.03;6098088;23;20210;-80
2023/01/15 07:22:50;;;;;;;5.03;4.07;;;;;;;4.95;100.00;98617.78;6077752;23;20202;-81
2023/01/15 07:25:17;;;;;;;5.70;4.07;;;;;;;5.00;100.00;98599.41;6076397;23;20210;-81
2023/01/15 07:27:47;;;;;;;5.70;4.57;;;;;;;5.15;100.00;98607.13;6100158;23;20207;-81
2023/01/15 07:30:14;;;;;;;5.30;3.80;;;;;;;5.20;100.00;98607.31;6125404;23;20285;-81
2023/01/15 07:32:41;;;;;;;5.87;4.37;;;;;;;5.24;100.00;98608.50;6125902;23;20283;-81
2023/01/15 07:35:09;;;;;;;6.57;4.77;;;;;;;5.29;100.00;98620.16;6101067;23;20648;-80
2023/01/15 07:37:36;;;;;;;6.30;4.60;;;;;;;5.36;100.00;98600.72;6126091;23;20188;-81
2023/01/15 07:40:03;;;;;;;5.90;4.53;;;;;;;5.42;100.00;98595.38;6125531;23;20216;-80
2023/01/15 07:50:46;;;;;;;5.37;3.70;;;;;;;5.38;100.00;98564.13;6123839;23;20286;-81
2023/01/15 07:53:13;;;;;;;4.60;3.60;;;;;;;5.37;100.00;98546.53;6224889;23;20667;-81
2023/01/15 07:55:39;;;;;;;4.47;3.67;;;;;;;5.21;100.00;98539.91;6123122;23;20574;-81
2023/01/15 07:58:06;;;;;;;3.37;3.07;;;;;;;5.28;100.00;98540.66;6221329;23;20212;-81
2023/01/15 08:00:32;;;;;;;5.07;3.30;;;;;;;5.21;100.00;98538.06;6122780;23;20710;-82
2023/01/15 08:03:00;;;;;;;3.53;3.07;;;;;;;5.02;100.00;98557.53;6123846;23;20234;-81
2023/01/15 08:05:26;;;;;;;4.20;3.33;;;;;;;5.01;100.00;98565.72;6125013;23;20203;-82
2023/01/15 08:07:53;;;;;;;4.83;3.33;;;;;;;5.05;100.00;98562.44;6126701;23;20210;-81
2023/01/15 08:10:20;;;;;;;4.67;3.80;;;;;;;4.98;100.00;98548.38;6098949;23;20208;-80
2023/01/15 08:15:38;;;;;;;5.63;4.50;;;;;;;4.97;100.00;98549.41;6104893;23;20207;-82
2023/01/15 08:18:05;;;;;;;6.53;5.10;;;;;;;4.98;100.00;98551.03;6102835;23;20239;-81
2023/01/15 08:20:36;;;;;;;6.83;4.80;;;;;;;5.05;100.00;98561.59;6229982;23;20287;-81
2023/01/15 08:23:03;;;;;;;6.50;5.33;;;;;;;5.09;100.00;98568.94;6104328;23;20210;-81
2023/01/15 08:25:30;;;;;;;5.10;4.60;;;;;;;5.14;100.00;98573.63;6128660;23;20216;-81
2023/01/15 08:28:00;;;;;;;5.17;4.67;;;;;;;5.20;100.00;98586.88;6131273;23;20295;-81
2023/01/15 08:30:27;;;;;;;4.50;4.10;;;;;;;5.33;100.00;98564.75;6082843;23;20203;-81
2023/01/15 08:32:59;;;;;;;5.13;4.63;;;;;;;5.45;100.00;98525.88;6231362;23;20214;-81
2023/01/15 08:35:26;;;;;;;5.97;4.60;;;;;;;5.56;100.00;98521.72;6104399;23;20551;-81
2023/01/15 08:37:52;;;;;;;5.73;4.67;;;;;;;5.70;100.00;98532.03;6092454;23;20231;-81
2023/01/15 08:40:19;;;;;;;6.53;5.10;;;;;;;5.81;100.00;98541.19;6101663;23;20725;-81
2023/01/15 08:42:46;;;;;;;7.17;5.40;;;;;;;5.88;100.00;98536.66;6233396;23;20184;-81
2023/01/15 08:45:13;;;;;;;7.60;5.97;;;;;;;5.98;100.00;98537.00;6233325;23;20183;-81
2023/01/15 08:47:40;;;;;;;9.07;5.73;;;;;;;6.05;100.00;98535.09;6105633;23;20269;-81
2023/01/15 08:50:08;;;;;;;5.67;4.90;;;;;;;6.09;100.00;98530.16;6131216;23;20207;-82
2023/01/15 08:52:36;;;;;;;5.40;4.30;;;;;;;6.11;100.00;98536.09;6106157;23;20211;-82
2023/01/15 08:55:04;;;;;;;4.30;3.90;;;;;;;6.28;100.00;98544.31;6106413;23;20208;-81
2023/01/15 08:57:31;;;;;;;5.83;4.33;;;;;;;6.24;100.00;98546.59;6106783;23;20218;-81
2023/01/15 08:59:57;;;;;;;5.10;4.23;;;;;;;6.36;100.00;98544.03;6234819;23;20195;-82
2023/01/15 09:02:24;;;;;;;5.87;4.40;;;;;;;6.46;100.00;98549.69;6132135;23;20215;-81
2023/01/15 09:04:51;;;;;;;4.93;4.03;;;;;;;6.50;100.00;98543.69;6106607;23;20207;-82
2023/01/15 09:07:18;;;;;;;4.80;3.63;;;;;;;6.44;100.00;98547.22;6133052;23;20211;-82
2023/01/15 09:09:45;;;;;;;4.63;3.87;;;;;;;6.53;100.00;98556.56;6084764;23;20207;-82
2023/01/15 09:12:12;;;;;;;5.50;3.90;;;;;;;6.55;100.00;98554.50;6107321;23;20227;-81
2023/01/15 09:14:39;;;;;;;5.23;3.60;;;;;;;6.48;100.00;98551.09;6106070;23;20282;-81
2023/01/15 09:17:26;;;;;;;4.77;3.40;;;;;;;6.45;100.00;98558.69;6131713;23;20215;-81
2023/01/15 09:19:53;;;;;;;6.37;3.93;;;;;;;6.53;100.00;98561.09;6107302;23;20207;-82
2023/01/15 09:22:20;;;;;;;6.33;3.60;;;;;;;6.62;100.00;98567.75;6121264;23;20208;-81
2023/01/15 09:24:46;;;;;;;4.60;3.53;;;;;;;6.68;100.00;98571.34;6121557;23;20231;-81
2023/01/15 09:27:13;;;;;;;4.10;3.27;;;;;;;6.84;100.00;98573.47;6123628;23;20238;-81
2023/01/15 09:29:40;;;;;;;4.00;3.50;;;;;;;6.89;100.00;98573.63;6232633;23;20701;-82
2023/01/15 09:32:08;;;;;;;4.30;3.47;;;;;;;6.93;100.00;98572.94;6100846;23;20200;-81
2023/01/15 09:34:35;;;;;;;4.37;3.40;;;;;;;7.03;100.00;98567.09;6087831;23;20748;-81
2023/01/15 09:37:02;;;;;;;4.43;3.50;;;;;;;7.19;100.00;98561.16;6132233;23;20241;-81
2023/01/15 09:39:28;;;;;;;3.63;3.20;;;;;;;7.19;100.00;98558.50;6131631;23;20215;-82
2023/01/15 09:42:07;;;;;;;4.50;3.67;;;;;;;7.37;100.00;98558.47;6134033;23;20208;-81
2023/01/15 09:44:40;;;;;;;3.90;3.17;;;;;;;7.38;100.00;98556.63;6107319;23;20234;-82
2023/01/15 09:47:22;;;;;;;3.60;3.27;;;;;;;7.50;100.00;98557.50;6106753;23;20204;-81
2023/01/15 09:49:55;;;;;;;4.57;3.63;;;;;;;7.43;100.00;98552.25;6133967;23;20215;-81
2023/01/15 09:52:42;;;;;;;6.17;4.53;;;;;;;7.48;100.00;98547.06;6108515;23;20203;-82
2023/01/15 09:55:13;;;;;;;6.20;5.47;;;;;;;7.71;100.00;98558.84;6208208;23;20240;-82
2023/01/15 09:57:41;;;;;;;5.93;4.90;;;;;;;7.78;100.00;98543.56;6085402;23;20207;-81
2023/01/15 10:00:23;;;;;;;5.07;4.33;;;;;;;7.88;100.00;98538.50;6107022;23;20216;-80
2023/01/15 10:03:24;;;;;;;4.50;4.07;;;;;;;8.01;100.00;98545.47;6081424;23;20267;-81
2023/01/15 10:06:05;;;;;;;4.03;3.57;;;;;;;8.10;100.00;98536.09;6208719;23;20235;-81
2023/01/15 10:08:40;;;;;;;4.60;4.10;;;;;;;8.03;100.00;98540.72;6135441;23;20282;-82
2023/01/15 10:11:14;;;;;;;4.60;4.20;;;;;;;8.06;100.00;98541.09;6110383;23;20272;-82
2023/01/15 10:13:50;;;;;;;4.97;4.47;;;;;;;8.09;100.00;98539.81;6099634;23;20214;-81
2023/01/15 10:16:21;;;;;;;6.37;5.10;;;;;;;8.06;100.00;98538.41;6082567;23;20222;-81
2023/01/15 10:18:48;;;;;;;7.37;6.53;;;;;;;8.09;100.00;98518.47;6084674;23;20222;-82
2023/01/15 10:21:46;;;;;;;8.07;6.40;;;;;;;8.08;100.00;98527.50;6135183;23;20198;-82
2023/01/15 10:24:37;;;;;;;6.87;5.60;;;;;;;8.18;100.00;98517.06;6132874;23;20215;-82
2023/01/15 10:27:20;;;;;;;6.03;5.33;;;;;;;8.03;100.00;98514.84;6184167;23;20218;-81
2023/01/15 10:30:14;;;;;;;5.10;4.50;;;;;;;8.11;100.00;98505.72;6105827;23;20215;-81
2023/01/15 10:32:48;;;;;;;4.83;4.33;;;;;;;7.98;100.00;98512.88;6106584;23;20236;-81
2023/01/15 10:35:46;;;;;;;4.80;4.17;;;;;;;7.87;100.00;98516.34;6110900;23;20211;-81
2023/01/15 10:38:31;;;;;;;4.83;4.03;;;;;;;7.82;100.00;98512.75;6103559;23;20226;-81
2023/01/15 10:41:05;;;;;;;4.63;3.80;;;;;;;7.73;100.00;98501.59;6106308;23;20217;-81
2023/01/15 10:43:59;;;;;;;4.93;4.00;;;;;;;7.71;100.00;98514.34;6132074;23;20633;-81
2023/01/15 10:46:32;;;;;;;5.03;4.27;;;;;;;7.62;100.00;98499.69;6212199;23;20222;-81
2023/01/15 10:49:03;;;;;;;5.03;3.90;;;;;;;7.60;100.00;98493.81;6088082;23;20205;-81
2023/01/15 10:51:43;;;;;;;5.17;3.87;;;;;;;7.53;100.00;98480.56;6105186;23;20214;-81
2023/01/15 10:54:14;;;;;;;4.37;3.77;;;;;;;7.49;100.00;98481.25;6104356;23;20253;-80
2023/01/15 10:57:27;;;;;;;3.70;3.33;;;;;;;7.38;100.00;98474.84;6205940;23;20708;-80
2023/01/15 10:59:59;;;;;;;5.73;4.30;;;;;;;7.21;100.00;98465.88;6079634;23;20220;-81
2023/01/15 11:02:37;;;;;;;3.87;3.53;;;;;;;7.20;100.00;98458.09;6084366;23;20208;-80
2023/01/15 11:05:04;;;;;;;4.47;3.60;;;;;;;7.29;100.00;98464.72;6085869;23;20207;-81
2023/01/15 11:07:38;;;;;;;5.00;4.10;;;;;;;7.28;100.00;98465.78;6103579;23;20211;-81
2023/01/15 11:10:25;;;;;;;3.70;3.37;;;;;;;7.22;100.00;98461.34;6128729;23;20226;-82
2023/01/15 11:21:26;;;;;;;4.57;4.10;;;;;;;7.35;100.00;98448.66;6108916;23;20216;-81
2023/01/15 11:23:54;;;;;;;4.00;3.60;;;;;;;7.33;100.00;98456.03;6130962;23;20263;-81
2023/01/15 11:26:27;;;;;;;5.03;4.10;;;;;;;7.46;100.00;98449.72;6081073;23;20215;-81
2023/01/15 11:28:54;;;;;;;4.87;4.20;;;;;;;7.39;100.00;98447.16;6081743;23;20207;-81
2023/01/15 11:31:21;;;;;;;5.90;5.30;;;;;;;7.38;100.00;98440.19;6105061;23;20223;-82
2023/01/15 11:33:58;;;;;;;5.90;5.20;;;;;;;7.35;100.00;98439.84;6129563;23;20211;-81
2023/01/15 11:36:27;;;;;;;8.00;5.93;;;;;;;7.21;100.00;98436.56;6232208;23;20657;-81
2023/01/15 11:38:53;;;;;;;6.87;5.97;;;;;;;7.19;100.00;98443.94;6081784;23;20667;-82
2023/01/15 11:52:47;;;;;;;5.30;4.80;;;;;;;7.22;100.00;98445.38;6106373;23;20211;-81
2023/01/15 11:55:19;;;;;;;7.63;5.27;;;;;;;7.15;100.00;98444.63;6107695;23;20591;-81
2023/01/15 11:57:47;;;;;;;6.30;5.63;;;;;;;7.20;100.00;98434.94;6108438;23;20191;-81
2023/01/15 12:00:29;;;;;;;6.03;4.97;;;;;;;7.32;100.00;98446.44;6082010;23;20207;-82
2023/01/15 12:03:10;;;;;;;5.80;4.83;;;;;;;7.35;100.00;98440.66;6109716;23;20255;-82
2023/01/15 12:05:45;;;;;;;6.27;5.10;;;;;;;7.41;100.00;98445.09;6109767;23;20219;-82
2023/01/15 12:08:41;;;;;;;4.90;4.47;;;;;;;7.47;100.00;98446.81;6108556;23;20207;-81
2023/01/15 12:11:32;;;;;;;4.97;4.40;;;;;;;7.43;100.00;98444.84;6086061;23;20276;-82
2023/01/15 12:14:25;;;;;;;5.67;4.50;;;;;;;7.39;100.00;98439.16;6107576;23;20639;-81
2023/01/15 12:17:05;;;;;;;6.00;5.40;;;;;;;7.33;100.00;98428.59;6134448;23;20227;-81
2023/01/15 12:19:53;;;;;;;5.90;4.90;;;;;;;7.28;100.00;98429.28;6134185;23;20207;-81
2023/01/15 12:22:35;;;;;;;6.53;5.10;;;;;;;7.19;100.00;98417.31;6133704;23;20218;-81
2023/01/15 12:25:09;;;;;;;5.27;4.77;;;;;;;7.17;100.00;98407.94;6133602;23;20238;-82
2023/01/15 12:27:54;;;;;;;5.70;5.10;;;;;;;7.09;100.00;98403.75;6108676;23;20214;-82
2023/01/15 12:30:27;;;;;;;5.60;5.10;;;;;;;6.96;100.00;98404.72;6133449;23;20203;-81
2023/01/15 12:33:10;;;;;;;6.40;5.70;;;;;;;6.96;100.00;98398.59;6083347;23;20611;-81
2023/01/15 12:35:55;;;;;;;6.27;5.67;;;;;;;6.87;100.00;98394.63;6132908;23;20263;-81
2023/01/15 12:38:36;;;;;;;8.47;6.20;;;;;;;6.85;100.00;98399.38;6107411;23;20219;-81
2023/01/15 12:41:09;;;;;;;7.10;5.70;;;;;;;6.84;100.00;98403.88;6134726;23;20247;-82
2023/01/15 12:46:30;;;;;;;7.97;5.70;;;;;;;6.75;100.00;98397.25;6213786;23;20222;-81
2023/01/15 12:49:20;;;;;;;12.97;8.37;;;;;;;6.77;100.00;98399.66;6102415;23;20207;-81